Herod, IL (62947)

1:20 AM CDT on July 12, 2014 (GMT -0500)
KILHARRI2 Elev 400 ft | 37.74 °N, 88.54 °W | Change Station

Current weather conditions updated 20 minutes ago

Clear
Clear
75.1 °F
Feels Like 76 °F
N
0.0
Wind Variable Wind from South
Gusts 4.0 mph

Today is forecast to be Warmer than yesterday.

Today
High -- | Low -- °F
--% Chance of Precip.
Yesterday
High -- | Low -- °F
Precip. -- in
5:42 AM 8:16 PM
Full, 100% visible
Pressure 30.16 in
Visibility 7.0 miles
Clouds Clear
Heat Index 76 °F
Dew Point 67 °F
Humidity 75%
Rainfall 0.00 in
Snow Depth Not available.
UV 0 out of 12
Pollen 3.30 out of 12
Air Quality Not available.
Flu Activity Sporadic
METAR KHSB 120615Z AUTO 00000KT 7SM CLR 21/21 A3016 RMK AO2 T02080206

More Conditions Fewer Conditions

Pressure 30.16 in
Visibility 7.0 miles
Clouds Clear
Heat Index 76 °F
Dew Point 67 °F
Humidity 75%
Rainfall 0.00 in
Snow Depth Not available.
UV 0 out of 12
Pollen 3.30 out of 12
Air Quality Not available.
Flu Activity Sporadic
METAR KHSB 120615Z AUTO 00000KT 7SM CLR 21/21 A3016 RMK AO2 T02080206

More Conditions Fewer Conditions

10-Day Weather Forecast

Almanac

Astronomy

Jul. 12, 2014 Rise Set
Actual Time 5:42 AM CDT 8:16 PM CDT
Civil Twilight 5:12 AM CDT 8:46 PM CDT
Nautical Twilight 4:34 AM CDT 9:24 PM CDT
Astronomical Twilight 3:52 AM CDT 10:06 PM CDT
Moon 8:20 PM CDT 6:00 AM CDT
Length of Visible Light 15h 34m
Length of Day
14h 33m
Tomorrow will be 1m 6s shorter.
Full, 100% of the Moon is Illuminated
Today
Full
Jul 12
Full
Jul 18
Last Quarter
Jul 26
New
Aug 3
First Quarter

Today's Extremes

State Highs State Lows

Community

WunderPhotos

Upload Photos

1,732,719 photos uploaded!

Nearby

Snow Depth

Station Depth Elevation
No new snow has been reported.

Earthquake Activity

City Distance Mag. Time & Date
No recent earthquake activity has been reported nearby.
Minimum magnitude displayed is 2.5.

Coastal Water Temperatures

Place Temperature
No Stations Reporting

Nearby Weather Stations

Station Location Temp. Heat Index Dew Point Humidity Wind Precip. Elev Updated Type
RAWS DIXON SPRINGS IL, Simpson, IL 71 °F - 68 °F 91% North  at  0 mph 0.00 in / hr 540 ft 12:08 AM CDT MADIS
Harrisburg, IL 75.1 °F 76 °F 67 °F 75% South  at  0.0 mph 0.00 in / hr 400 ft 1:00 AM CDT Normal
Weather Observatory, Round Knob, IL 72.0 °F - 69 °F 90% East  at  3.0 mph 1.94 in / hr 384 ft 1:20 AM CDT Rapid Fire

Show More Stations Show Fewer Stations